createdAt,value
2024-02-19T00:00:39.089Z,496.00
2024-02-19T00:01:39.099Z,494.00
2024-02-19T00:02:39.098Z,495.00
2024-02-19T00:03:39.211Z,495.00
2024-02-19T00:04:39.290Z,495.00
2024-02-19T00:05:40.251Z,494.00
2024-02-19T00:06:39.432Z,495.00
2024-02-19T00:07:39.552Z,493.00
2024-02-19T00:08:39.467Z,493.00
2024-02-19T00:09:39.588Z,495.00
2024-02-19T00:10:39.618Z,495.00
2024-02-19T00:11:39.774Z,493.00
2024-02-19T00:12:39.830Z,494.00
2024-02-19T00:13:39.797Z,495.00
2024-02-19T00:14:39.853Z,495.00
2024-02-19T00:15:39.989Z,493.00
2024-02-19T00:16:43.508Z,490.00
2024-02-19T00:17:40.107Z,490.00
2024-02-19T00:18:40.116Z,493.00
2024-02-19T00:19:39.997Z,493.00
2024-02-19T00:20:40.021Z,493.00
2024-02-19T00:21:40.066Z,495.00
2024-02-19T00:22:39.981Z,494.00
2024-02-19T00:23:39.988Z,495.00
2024-02-19T00:24:40.031Z,496.00
2024-02-19T00:25:40.015Z,495.00
2024-02-19T00:26:40.004Z,496.00
2024-02-19T00:27:40.310Z,498.00
2024-02-19T00:28:40.011Z,498.00
2024-02-19T00:29:40.020Z,497.00
2024-02-19T00:30:40.007Z,497.00
2024-02-19T00:31:39.976Z,497.00
2024-02-19T00:32:40.078Z,497.00
2024-02-19T00:33:40.124Z,497.00
2024-02-19T00:34:40.046Z,495.00
2024-02-19T00:35:40.014Z,494.00
2024-02-19T00:36:40.066Z,492.00
2024-02-19T00:37:40.031Z,495.00
2024-02-19T00:38:40.030Z,495.00
2024-02-19T00:39:40.042Z,495.00
2024-02-19T00:40:40.040Z,494.00
2024-02-19T00:41:40.046Z,494.00
2024-02-19T00:42:40.294Z,495.00
2024-02-19T00:43:40.204Z,492.00
2024-02-19T00:44:40.239Z,492.00
2024-02-19T00:45:40.380Z,493.00
2024-02-19T00:46:40.392Z,494.00
2024-02-19T00:47:40.474Z,495.00
2024-02-19T00:48:40.555Z,496.00
2024-02-19T00:49:40.833Z,494.00
2024-02-19T00:50:40.574Z,493.00
2024-02-19T00:51:40.666Z,495.00
2024-02-19T00:52:40.695Z,494.00
2024-02-19T00:53:40.761Z,494.00
2024-02-19T00:54:40.830Z,491.00
2024-02-19T00:55:40.858Z,490.00
2024-02-19T00:56:40.906Z,488.00
2024-02-19T00:57:40.988Z,487.00
2024-02-19T00:58:41.028Z,485.00
2024-02-19T00:59:41.043Z,486.00
2024-02-19T01:00:41.180Z,486.00
2024-02-19T01:01:41.235Z,486.00
2024-02-19T01:02:41.220Z,490.00
2024-02-19T01:03:41.348Z,490.00
2024-02-19T01:04:41.365Z,490.00
2024-02-19T01:05:41.438Z,492.00
2024-02-19T01:06:41.444Z,491.00
2024-02-19T01:07:41.442Z,491.00
2024-02-19T01:08:41.504Z,492.00
2024-02-19T01:09:41.557Z,490.00
2024-02-19T01:10:41.617Z,488.00
2024-02-19T01:11:41.560Z,487.00
2024-02-19T01:12:41.693Z,489.00
2024-02-19T01:13:41.694Z,491.00
2024-02-19T01:14:41.807Z,492.00
2024-02-19T01:15:41.775Z,491.00
2024-02-19T01:16:41.815Z,491.00
2024-02-19T01:17:41.832Z,493.00
2024-02-19T01:18:41.934Z,495.00
2024-02-19T01:19:42.018Z,497.00
2024-02-19T01:20:41.948Z,500.00
2024-02-19T01:21:42.024Z,500.00
2024-02-19T01:22:42.068Z,498.00
2024-02-19T01:23:42.109Z,499.00
2024-02-19T01:24:42.285Z,498.00
2024-02-19T01:25:42.250Z,499.00
2024-02-19T01:26:42.368Z,496.00
2024-02-19T01:27:42.464Z,496.00
2024-02-19T01:28:42.558Z,497.00
2024-02-19T01:29:42.561Z,498.00
2024-02-19T01:30:42.642Z,496.00
2024-02-19T01:31:42.661Z,496.00
2024-02-19T01:32:42.768Z,495.00
2024-02-19T01:33:42.910Z,496.00
2024-02-19T01:34:43.057Z,496.00
2024-02-19T01:35:42.907Z,500.00
2024-02-19T01:36:42.995Z,500.00
2024-02-19T01:37:43.098Z,499.00
2024-02-19T01:38:43.252Z,500.00
2024-02-19T01:39:43.151Z,499.00
2024-02-19T01:40:43.855Z,500.00
2024-02-19T01:41:43.264Z,500.00
2024-02-19T01:42:43.403Z,501.00
2024-02-19T01:43:43.416Z,504.00
2024-02-19T01:44:43.468Z,504.00
2024-02-19T01:45:43.511Z,503.00
2024-02-19T01:46:43.550Z,502.00
2024-02-19T01:47:43.620Z,502.00
2024-02-19T01:48:43.717Z,501.00
2024-02-19T01:49:43.858Z,499.00
2024-02-19T01:50:43.805Z,499.00
2024-02-19T01:51:43.936Z,500.00
2024-02-19T01:52:43.937Z,499.00
2024-02-19T01:53:43.988Z,499.00
2024-02-19T01:54:44.089Z,500.00
2024-02-19T01:55:44.139Z,501.00
2024-02-19T01:56:44.160Z,500.00
2024-02-19T01:57:44.295Z,499.00
2024-02-19T01:58:44.358Z,497.00
2024-02-19T01:59:44.420Z,495.00
2024-02-19T02:00:44.542Z,496.00
2024-02-19T02:01:44.693Z,496.00
2024-02-19T02:02:44.619Z,497.00
2024-02-19T02:03:44.600Z,497.00
2024-02-19T02:04:44.685Z,498.00
2024-02-19T02:05:44.691Z,500.00
2024-02-19T02:06:44.760Z,497.00
2024-02-19T02:07:44.782Z,495.00
2024-02-19T02:08:44.792Z,493.00
2024-02-19T02:09:44.890Z,495.00
2024-02-19T02:10:44.989Z,497.00
2024-02-19T02:11:44.971Z,495.00
2024-02-19T02:12:45.413Z,496.00
2024-02-19T02:13:45.062Z,496.00
2024-02-19T02:14:45.072Z,495.00
2024-02-19T02:15:45.164Z,496.00
2024-02-19T02:16:45.238Z,494.00
2024-02-19T02:17:45.605Z,495.00
2024-02-19T02:18:45.303Z,491.00
2024-02-19T02:19:45.413Z,493.00
2024-02-19T02:20:45.330Z,497.00
2024-02-19T02:21:45.392Z,497.00
2024-02-19T02:22:45.389Z,498.00
2024-02-19T02:23:45.413Z,498.00
2024-02-19T02:24:45.476Z,497.00
2024-02-19T02:25:45.504Z,498.00
2024-02-19T02:26:45.538Z,501.00
2024-02-19T02:27:45.628Z,499.00
2024-02-19T02:28:45.603Z,498.00
2024-02-19T02:29:45.647Z,496.00
2024-02-19T02:30:45.717Z,497.00
2024-02-19T02:31:45.728Z,497.00
2024-02-19T02:32:45.754Z,498.00
2024-02-19T02:33:45.869Z,499.00
2024-02-19T02:34:45.795Z,499.00
2024-02-19T02:35:45.742Z,499.00
2024-02-19T02:36:45.780Z,499.00
2024-02-19T02:37:45.793Z,499.00
2024-02-19T02:38:45.829Z,499.00
2024-02-19T02:39:45.873Z,500.00
2024-02-19T02:40:45.868Z,499.00
2024-02-19T02:41:45.882Z,496.00
2024-02-19T02:42:45.990Z,497.00
2024-02-19T02:43:45.969Z,497.00
2024-02-19T02:44:46.009Z,496.00
2024-02-19T02:45:46.058Z,501.00
2024-02-19T02:46:46.024Z,500.00
2024-02-19T02:47:46.064Z,498.00
2024-02-19T02:48:46.228Z,499.00
2024-02-19T02:49:46.065Z,499.00
2024-02-19T02:50:46.075Z,497.00
2024-02-19T02:51:46.104Z,497.00
2024-02-19T02:52:46.111Z,496.00
2024-02-19T02:53:46.072Z,493.00
2024-02-19T02:54:46.158Z,495.00
2024-02-19T02:55:46.137Z,497.00
2024-02-19T02:56:46.167Z,500.00
2024-02-19T02:57:46.276Z,503.00
2024-02-19T02:58:46.227Z,504.00
2024-02-19T02:59:46.270Z,505.00
2024-02-19T03:00:46.398Z,503.00
2024-02-19T03:01:46.353Z,502.00
2024-02-19T03:02:46.325Z,504.00
2024-02-19T03:03:46.406Z,504.00
2024-02-19T03:04:46.554Z,505.00
2024-02-19T03:05:46.362Z,505.00
2024-02-19T03:06:46.570Z,503.00
2024-02-19T03:07:46.524Z,501.00
2024-02-19T03:08:46.499Z,502.00
2024-02-19T03:09:46.579Z,502.00
2024-02-19T03:10:46.568Z,502.00
2024-02-19T03:11:46.539Z,501.00
2024-02-19T03:12:46.582Z,500.00
2024-02-19T03:13:46.606Z,502.00
2024-02-19T03:14:46.612Z,501.00
2024-02-19T03:15:46.674Z,501.00
2024-02-19T03:16:46.645Z,502.00
2024-02-19T03:17:46.689Z,500.00
2024-02-19T03:18:47.005Z,501.00
2024-02-19T03:19:46.705Z,500.00
2024-02-19T03:20:46.650Z,499.00
2024-02-19T03:21:46.743Z,500.00
2024-02-19T03:22:46.732Z,500.00
2024-02-19T03:23:46.784Z,500.00
2024-02-19T03:24:46.803Z,501.00
2024-02-19T03:25:46.800Z,503.00
2024-02-19T03:26:46.859Z,503.00
2024-02-19T03:27:46.921Z,503.00
2024-02-19T03:28:46.920Z,503.00
2024-02-19T03:29:46.946Z,502.00
2024-02-19T03:30:46.991Z,502.00
2024-02-19T03:31:46.970Z,501.00
2024-02-19T03:32:47.041Z,500.00
2024-02-19T03:33:47.125Z,498.00
2024-02-19T03:34:47.053Z,499.00
2024-02-19T03:35:47.047Z,498.00
2024-02-19T03:36:47.099Z,500.00
2024-02-19T03:37:47.039Z,497.00
2024-02-19T03:38:47.053Z,494.00
2024-02-19T03:39:47.115Z,494.00
2024-02-19T03:40:47.096Z,495.00
2024-02-19T03:41:47.103Z,494.00
2024-02-19T03:42:47.171Z,497.00
2024-02-19T03:43:47.132Z,497.00
2024-02-19T03:44:47.133Z,498.00
2024-02-19T03:45:47.181Z,497.00
2024-02-19T03:46:47.252Z,500.00
2024-02-19T03:47:47.214Z,500.00
2024-02-19T03:48:47.237Z,502.00
2024-02-19T03:49:47.264Z,502.00
2024-02-19T03:50:47.182Z,503.00
2024-02-19T03:51:47.202Z,505.00
2024-02-19T03:52:47.226Z,504.00
2024-02-19T03:53:47.221Z,501.00
2024-02-19T03:54:47.276Z,502.00
2024-02-19T03:55:47.197Z,500.00
2024-02-19T03:56:47.209Z,497.00
2024-02-19T03:57:47.279Z,496.00
2024-02-19T03:58:47.226Z,496.00
2024-02-19T03:59:47.233Z,500.00
2024-02-19T04:00:47.307Z,500.00
2024-02-19T04:01:47.259Z,502.00
2024-02-19T04:02:47.218Z,504.00
2024-02-19T04:03:47.431Z,504.00
2024-02-19T04:04:47.264Z,502.00
2024-02-19T04:05:47.268Z,501.00
2024-02-19T04:06:47.368Z,500.00
2024-02-19T04:07:47.314Z,501.00
2024-02-19T04:08:47.379Z,502.00
2024-02-19T04:09:47.317Z,503.00
2024-02-19T04:10:47.292Z,503.00
2024-02-19T04:11:47.294Z,505.00
2024-02-19T04:12:47.335Z,505.00
2024-02-19T04:13:47.283Z,503.00
2024-02-19T04:14:47.319Z,503.00
2024-02-19T04:15:54.515Z,486.00
2024-02-19T04:16:54.471Z,485.00
2024-02-19T04:17:54.593Z,486.00
2024-02-19T04:18:54.683Z,489.00
2024-02-19T04:19:54.516Z,487.00
2024-02-19T04:20:54.535Z,487.00
2024-02-19T04:21:54.532Z,486.00
2024-02-19T04:22:54.492Z,486.00
2024-02-19T04:23:54.512Z,486.00
2024-02-19T04:24:54.532Z,487.00
2024-02-19T04:25:54.471Z,488.00
2024-02-19T04:26:54.519Z,487.00
2024-02-19T04:27:54.567Z,486.00
2024-02-19T04:28:54.565Z,486.00
2024-02-19T04:29:54.495Z,485.00
2024-02-19T04:31:01.711Z,481.00
2024-02-19T04:32:01.675Z,482.00
2024-02-19T04:33:01.785Z,479.00
2024-02-19T04:34:01.819Z,482.00
2024-02-19T04:35:01.826Z,485.00
2024-02-19T04:36:01.687Z,486.00
2024-02-19T04:37:01.671Z,485.00
2024-02-19T04:38:01.683Z,489.00
2024-02-19T04:39:01.666Z,490.00
2024-02-19T04:40:01.788Z,489.00
2024-02-19T04:41:01.703Z,489.00
2024-02-19T04:42:01.692Z,489.00
2024-02-19T04:43:01.713Z,490.00
2024-02-19T04:44:01.690Z,489.00
2024-02-19T04:45:01.671Z,491.00
2024-02-19T04:46:01.704Z,490.00
2024-02-19T04:47:01.672Z,489.00
2024-02-19T04:48:01.778Z,489.00
2024-02-19T04:49:01.826Z,489.00
2024-02-19T04:50:01.796Z,487.00
2024-02-19T04:51:01.657Z,490.00
2024-02-19T04:52:01.780Z,490.00
2024-02-19T04:53:01.677Z,490.00
2024-02-19T04:54:01.665Z,489.00
2024-02-19T04:55:01.781Z,489.00
2024-02-19T04:56:01.675Z,487.00
2024-02-19T04:57:01.681Z,486.00
2024-02-19T04:58:01.702Z,486.00
2024-02-19T04:59:01.710Z,488.00
2024-02-19T05:00:01.719Z,487.00
2024-02-19T05:01:01.798Z,489.00
2024-02-19T05:02:02.015Z,490.00
2024-02-19T05:03:01.726Z,490.00
2024-02-19T05:04:01.842Z,490.00
2024-02-19T05:05:01.837Z,489.00
2024-02-19T05:06:01.779Z,489.00
2024-02-19T05:07:01.750Z,489.00
2024-02-19T05:08:01.740Z,489.00
2024-02-19T05:09:01.692Z,490.00
2024-02-19T05:10:01.791Z,489.00
2024-02-19T05:11:01.845Z,490.00
2024-02-19T05:12:01.727Z,490.00
2024-02-19T05:13:01.835Z,491.00
2024-02-19T05:14:01.745Z,492.00
2024-02-19T05:15:01.696Z,492.00
2024-02-19T05:16:01.749Z,490.00
2024-02-19T05:17:01.820Z,491.00
2024-02-19T05:18:01.877Z,488.00
2024-02-19T05:19:01.872Z,488.00
2024-02-19T05:20:01.943Z,489.00
2024-02-19T05:21:01.713Z,490.00
2024-02-19T05:22:01.734Z,489.00
2024-02-19T05:23:01.709Z,490.00
2024-02-19T05:24:01.724Z,493.00
2024-02-19T05:25:01.770Z,493.00
2024-02-19T05:26:01.707Z,494.00
2024-02-19T05:27:01.721Z,496.00
2024-02-19T05:28:01.780Z,495.00
2024-02-19T05:29:01.765Z,497.00
2024-02-19T05:30:01.701Z,497.00
2024-02-19T05:31:01.754Z,496.00
2024-02-19T05:32:01.707Z,496.00
2024-02-19T05:33:01.783Z,495.00
2024-02-19T05:34:01.744Z,496.00
2024-02-19T05:35:01.773Z,497.00
2024-02-19T05:36:01.722Z,494.00
2024-02-19T05:37:01.770Z,493.00
2024-02-19T05:38:01.756Z,491.00
2024-02-19T05:39:01.750Z,489.00
2024-02-19T05:40:01.925Z,490.00
2024-02-19T05:41:01.741Z,490.00
2024-02-19T05:42:01.726Z,490.00
2024-02-19T05:43:01.782Z,491.00
2024-02-19T05:44:01.742Z,489.00
2024-02-19T05:45:01.748Z,491.00
2024-02-19T05:46:01.754Z,494.00
2024-02-19T05:47:01.716Z,494.00
2024-02-19T05:48:01.910Z,495.00
2024-02-19T05:49:01.796Z,496.00
2024-02-19T05:50:01.912Z,497.00
2024-02-19T05:51:01.716Z,497.00
2024-02-19T05:52:01.796Z,497.00
2024-02-19T05:53:01.787Z,498.00
2024-02-19T05:54:01.728Z,498.00
2024-02-19T05:55:01.778Z,496.00
2024-02-19T05:56:01.761Z,497.00
2024-02-19T05:57:01.764Z,499.00
2024-02-19T05:58:01.802Z,502.00
2024-02-19T05:59:01.773Z,503.00
2024-02-19T06:00:01.728Z,505.00
2024-02-19T06:01:01.910Z,504.00
2024-02-19T06:02:01.927Z,504.00
2024-02-19T06:03:01.789Z,505.00
2024-02-19T06:04:01.815Z,509.00
2024-02-19T06:05:03.581Z,512.00
2024-02-19T06:06:01.825Z,513.00
2024-02-19T06:07:01.872Z,514.00
2024-02-19T06:08:01.795Z,514.00
2024-02-19T06:09:01.776Z,513.00
2024-02-19T06:10:01.811Z,512.00
2024-02-19T06:11:01.820Z,510.00
2024-02-19T06:12:01.798Z,511.00
2024-02-19T06:13:01.819Z,511.00
2024-02-19T06:14:01.791Z,512.00
2024-02-19T06:15:01.814Z,512.00
2024-02-19T06:16:01.833Z,512.00
2024-02-19T06:17:01.818Z,513.00
2024-02-19T06:18:01.896Z,513.00
2024-02-19T06:19:01.840Z,514.00
2024-02-19T06:20:01.828Z,514.00
2024-02-19T06:21:01.803Z,516.00
2024-02-19T06:22:01.814Z,518.00
2024-02-19T06:23:01.782Z,518.00
2024-02-19T06:24:01.765Z,518.00
2024-02-19T06:25:01.840Z,519.00
2024-02-19T06:26:01.828Z,519.00
2024-02-19T06:27:01.791Z,517.00
2024-02-19T06:28:01.823Z,517.00
2024-02-19T06:29:01.772Z,515.00
2024-02-19T06:30:01.802Z,514.00
2024-02-19T06:31:01.941Z,513.00
2024-02-19T06:32:01.802Z,512.00
2024-02-19T06:33:01.997Z,515.00
2024-02-19T06:34:01.963Z,515.00
2024-02-19T06:35:01.963Z,518.00
2024-02-19T06:36:01.802Z,520.00
2024-02-19T06:37:01.845Z,520.00
2024-02-19T06:38:01.825Z,520.00
2024-02-19T06:39:01.791Z,529.00
2024-02-19T06:40:01.893Z,542.00
2024-02-19T06:41:01.838Z,548.00
2024-02-19T06:42:01.842Z,693.00
2024-02-19T06:43:01.864Z,667.00
2024-02-19T06:44:01.802Z,654.00
2024-02-19T06:45:01.818Z,643.00
2024-02-19T06:46:01.957Z,647.00
2024-02-19T06:47:01.850Z,672.00
2024-02-19T06:48:01.944Z,713.00
2024-02-19T06:49:01.913Z,746.00
2024-02-19T06:50:01.879Z,747.00
2024-02-19T06:51:01.918Z,751.00
2024-02-19T06:52:01.915Z,798.00
2024-02-19T06:53:01.850Z,868.00
2024-02-19T06:54:01.838Z,985.00
2024-02-19T06:55:01.857Z,907.00
2024-02-19T06:56:01.854Z,1001.00
2024-02-19T06:57:01.825Z,941.00
2024-02-19T06:58:01.853Z,959.00
2024-02-19T06:59:01.817Z,993.00
2024-02-19T07:00:01.865Z,1156.00
2024-02-19T07:01:01.939Z,1118.00
2024-02-19T07:02:05.110Z,1064.00
2024-02-19T07:03:02.849Z,1067.00
2024-02-19T07:04:01.880Z,1129.00
2024-02-19T07:05:02.024Z,1124.00
2024-02-19T07:06:01.823Z,1132.00
2024-02-19T07:07:01.880Z,1145.00
2024-02-19T07:08:01.845Z,1234.00
2024-02-19T07:09:01.841Z,1217.00
2024-02-19T07:10:02.051Z,1211.00
2024-02-19T07:11:01.850Z,1302.00
2024-02-19T07:12:01.853Z,1241.00
2024-02-19T07:13:01.931Z,1194.00
2024-02-19T07:14:01.868Z,1408.00
2024-02-19T07:15:01.867Z,1234.00
2024-02-19T07:16:01.936Z,1201.00
2024-02-19T07:17:01.840Z,1204.00
2024-02-19T07:18:01.925Z,1221.00
2024-02-19T07:19:01.923Z,1237.00
2024-02-19T07:20:02.176Z,1314.00
2024-02-19T07:21:01.838Z,1389.00
2024-02-19T07:22:01.915Z,1421.00
2024-02-19T07:23:01.872Z,1322.00
2024-02-19T07:24:01.951Z,1232.00
2024-02-19T07:25:10.271Z,1242.00
2024-02-19T07:26:03.046Z,1251.00
2024-02-19T07:27:01.906Z,1333.00
2024-02-19T07:28:01.997Z,1389.00
2024-02-19T07:29:01.934Z,1356.00
2024-02-19T07:30:01.949Z,1317.00
2024-02-19T07:31:01.965Z,1311.00
2024-02-19T07:32:01.923Z,1297.00
2024-02-19T07:33:01.951Z,1297.00
2024-02-19T07:34:02.153Z,1307.00
2024-02-19T07:35:01.953Z,1397.00
2024-02-19T07:36:01.920Z,1374.00
2024-02-19T07:37:01.947Z,1347.00
2024-02-19T07:38:01.912Z,1344.00
2024-02-19T07:39:01.977Z,1436.00
2024-02-19T07:40:01.962Z,1463.00
2024-02-19T07:41:01.944Z,1355.00
2024-02-19T07:42:01.921Z,1378.00
2024-02-19T07:43:01.952Z,1371.00
2024-02-19T07:44:01.923Z,1375.00
2024-02-19T07:45:01.930Z,1358.00
2024-02-19T07:46:02.000Z,1356.00
2024-02-19T07:47:03.625Z,1353.00
2024-02-19T07:48:02.155Z,1339.00
2024-02-19T07:49:02.111Z,1313.00
2024-02-19T07:50:02.150Z,1303.00
2024-02-19T07:51:01.928Z,1287.00
2024-02-19T07:52:01.979Z,1275.00
2024-02-19T07:53:01.968Z,1260.00
2024-02-19T07:54:01.942Z,1245.00
2024-02-19T07:55:01.968Z,1242.00
2024-02-19T07:56:01.961Z,1239.00
2024-02-19T07:57:01.944Z,1236.00
2024-02-19T07:58:02.021Z,1233.00
2024-02-19T07:59:01.975Z,1230.00
2024-02-19T08:00:02.134Z,1223.00
2024-02-19T08:01:04.603Z,1211.00
2024-02-19T08:02:02.106Z,1208.00
2024-02-19T08:03:01.959Z,1200.00
2024-02-19T08:04:02.132Z,1198.00
2024-02-19T08:05:02.325Z,1194.00
2024-02-19T08:06:02.018Z,1184.00
2024-02-19T08:07:02.289Z,1178.00
2024-02-19T08:08:01.954Z,1171.00
2024-02-19T08:09:02.012Z,1168.00
2024-02-19T08:10:02.029Z,1158.00
2024-02-19T08:11:01.985Z,1146.00
2024-02-19T08:12:02.124Z,1140.00
2024-02-19T08:13:02.097Z,1133.00
2024-02-19T08:14:02.098Z,1131.00
2024-02-19T08:15:01.988Z,1129.00
2024-02-19T08:16:02.075Z,1126.00
2024-02-19T08:17:01.938Z,1120.00
2024-02-19T08:18:02.042Z,1122.00
2024-02-19T08:19:02.133Z,1122.00
2024-02-19T08:20:02.127Z,1120.00
2024-02-19T08:21:01.966Z,1120.00
2024-02-19T08:22:02.061Z,1113.00
2024-02-19T08:23:02.018Z,1112.00
2024-02-19T08:24:01.998Z,1111.00
2024-02-19T08:25:02.167Z,1110.00
2024-02-19T08:26:02.017Z,1100.00
2024-02-19T08:27:01.986Z,1085.00
2024-02-19T08:28:02.012Z,1067.00
2024-02-19T08:29:02.016Z,1153.00
2024-02-19T08:30:01.999Z,1049.00
2024-02-19T08:31:02.055Z,912.00
2024-02-19T08:32:01.971Z,890.00
2024-02-19T08:33:02.034Z,878.00
2024-02-19T08:34:02.190Z,857.00
2024-02-19T08:35:02.080Z,829.00
2024-02-19T08:36:01.992Z,819.00
2024-02-19T08:37:02.085Z,814.00
2024-02-19T08:38:02.034Z,817.00
2024-02-19T08:39:02.108Z,815.00
2024-02-19T08:40:02.093Z,817.00
2024-02-19T08:41:02.001Z,853.00
2024-02-19T08:42:02.017Z,871.00
2024-02-19T08:43:02.099Z,877.00
2024-02-19T08:44:02.018Z,983.00
2024-02-19T08:45:02.039Z,1002.00
2024-02-19T08:46:02.146Z,1016.00
2024-02-19T08:47:02.029Z,1028.00
2024-02-19T08:48:02.086Z,1078.00
2024-02-19T08:49:02.184Z,1180.00
2024-02-19T08:50:02.185Z,1095.00
2024-02-19T08:51:02.067Z,1206.00
2024-02-19T08:52:02.064Z,1076.00
2024-02-19T08:53:02.062Z,1072.00
2024-02-19T08:54:02.044Z,1067.00
2024-02-19T08:55:02.195Z,1043.00
2024-02-19T08:56:02.043Z,1008.00
2024-02-19T08:57:02.015Z,986.00
2024-02-19T08:58:02.110Z,981.00
2024-02-19T08:59:02.146Z,979.00
2024-02-19T09:00:02.206Z,981.00
2024-02-19T09:01:02.452Z,978.00
2024-02-19T09:02:02.469Z,961.00
2024-02-19T09:03:02.417Z,947.00
2024-02-19T09:04:02.609Z,1004.00
2024-02-19T09:05:02.611Z,993.00
2024-02-19T09:06:02.747Z,985.00
2024-02-19T09:07:02.790Z,963.00
2024-02-19T09:08:02.754Z,959.00
2024-02-19T09:09:02.828Z,958.00
2024-02-19T09:10:02.968Z,949.00
2024-02-19T09:11:03.010Z,941.00
2024-02-19T09:12:03.045Z,981.00
2024-02-19T09:13:03.171Z,940.00
2024-02-19T09:14:03.176Z,935.00
2024-02-19T09:15:03.209Z,1031.00
2024-02-19T09:16:03.243Z,1005.00
2024-02-19T09:17:03.286Z,984.00
2024-02-19T09:18:03.379Z,962.00
2024-02-19T09:19:03.515Z,967.00
2024-02-19T09:20:03.552Z,972.00
2024-02-19T09:21:03.486Z,986.00
2024-02-19T09:22:03.659Z,1000.00
2024-02-19T09:23:03.575Z,1001.00
2024-02-19T09:24:03.602Z,1000.00
2024-02-19T09:25:03.703Z,1008.00
2024-02-19T09:26:03.640Z,1011.00
2024-02-19T09:27:03.674Z,1006.00
2024-02-19T09:28:03.737Z,911.00
2024-02-19T09:29:03.753Z,899.00
2024-02-19T09:30:03.785Z,900.00
2024-02-19T09:31:03.883Z,896.00
2024-02-19T09:32:03.823Z,896.00
2024-02-19T09:33:03.954Z,898.00
2024-02-19T09:34:04.003Z,894.00
2024-02-19T09:35:04.168Z,898.00
2024-02-19T09:36:03.977Z,903.00
2024-02-19T09:37:04.140Z,899.00
2024-02-19T09:38:04.046Z,901.00
2024-02-19T09:39:04.097Z,940.00
2024-02-19T09:40:04.182Z,908.00
2024-02-19T09:41:04.189Z,905.00
2024-02-19T09:42:04.243Z,902.00
2024-02-19T09:43:04.284Z,897.00
2024-02-19T09:44:04.339Z,899.00
2024-02-19T09:45:04.368Z,906.00
2024-02-19T09:46:04.492Z,905.00
2024-02-19T09:47:04.470Z,876.00
2024-02-19T09:48:04.670Z,888.00
2024-02-19T09:49:04.671Z,1016.00
2024-02-19T09:50:04.705Z,958.00
2024-02-19T09:51:04.722Z,970.00
2024-02-19T09:52:04.837Z,1068.00
2024-02-19T09:53:04.842Z,1059.00
2024-02-19T09:54:04.972Z,1058.00
2024-02-19T09:55:05.046Z,1046.00
2024-02-19T09:56:05.067Z,1045.00
2024-02-19T09:57:05.144Z,1051.00
2024-02-19T09:58:05.286Z,1138.00
2024-02-19T09:59:05.299Z,1153.00
2024-02-19T10:00:05.330Z,1166.00
2024-02-19T10:01:05.451Z,1166.00
2024-02-19T10:02:06.496Z,1172.00
2024-02-19T10:03:05.517Z,1189.00
2024-02-19T10:04:07.639Z,1200.00
2024-02-19T10:05:05.757Z,1205.00
2024-02-19T10:06:05.606Z,1267.00
2024-02-19T10:07:05.651Z,1266.00
2024-02-19T10:08:05.817Z,1272.00
2024-02-19T10:09:05.528Z,1281.00
2024-02-19T10:10:05.613Z,1285.00
2024-02-19T10:11:05.554Z,1289.00
2024-02-19T10:12:05.553Z,1289.00
2024-02-19T10:13:05.530Z,1319.00
2024-02-19T10:14:05.569Z,1333.00
2024-02-19T10:15:05.525Z,1348.00
2024-02-19T10:16:07.288Z,1354.00
2024-02-19T10:17:05.549Z,1354.00
2024-02-19T10:18:05.649Z,1377.00
2024-02-19T10:19:05.945Z,1381.00
2024-02-19T10:20:05.573Z,1385.00
2024-02-19T10:21:05.543Z,1400.00
2024-02-19T10:22:05.617Z,1417.00
2024-02-19T10:23:05.580Z,1431.00
2024-02-19T10:24:05.664Z,1434.00
2024-02-19T10:25:05.591Z,1439.00
2024-02-19T10:26:05.546Z,1439.00
2024-02-19T10:27:05.565Z,1509.00
2024-02-19T10:28:05.582Z,1519.00
2024-02-19T10:29:05.574Z,1527.00
2024-02-19T10:30:05.573Z,1537.00
2024-02-19T10:31:05.606Z,1549.00
2024-02-19T10:32:05.586Z,1560.00
2024-02-19T10:33:05.639Z,1576.00
2024-02-19T10:34:05.726Z,1631.00
2024-02-19T10:35:05.683Z,1637.00
2024-02-19T10:36:05.573Z,1638.00
2024-02-19T10:37:05.602Z,1645.00
2024-02-19T10:38:05.585Z,1652.00
2024-02-19T10:39:05.619Z,1658.00
2024-02-19T10:40:05.654Z,1663.00
2024-02-19T10:41:07.461Z,1671.00
2024-02-19T10:42:05.624Z,1666.00
2024-02-19T10:43:05.711Z,1587.00
2024-02-19T10:44:05.681Z,1595.00
2024-02-19T10:45:05.651Z,1614.00
2024-02-19T10:46:05.712Z,1455.00
2024-02-19T10:47:05.706Z,1430.00
2024-02-19T10:48:05.814Z,1362.00
2024-02-19T10:49:05.909Z,1525.00
2024-02-19T10:50:05.720Z,1519.00
2024-02-19T10:51:05.675Z,1459.00
2024-02-19T10:52:05.752Z,1433.00
2024-02-19T10:53:05.758Z,1425.00
2024-02-19T10:54:05.979Z,1442.00
2024-02-19T10:55:13.346Z,1460.00
2024-02-19T10:56:06.885Z,1461.00
2024-02-19T10:57:05.768Z,1453.00
2024-02-19T10:58:05.810Z,1444.00
2024-02-19T10:59:05.806Z,1448.00
2024-02-19T11:00:05.770Z,1451.00
2024-02-19T11:01:06.042Z,1450.00
2024-02-19T11:02:05.885Z,1436.00
2024-02-19T11:03:05.820Z,1427.00
2024-02-19T11:04:05.918Z,1436.00
2024-02-19T11:05:05.810Z,1449.00
2024-02-19T11:06:05.841Z,1471.00
2024-02-19T11:07:05.857Z,1470.00
2024-02-19T11:08:05.787Z,1472.00
2024-02-19T11:09:05.792Z,1470.00
2024-02-19T11:10:05.889Z,1467.00
2024-02-19T11:11:05.956Z,1464.00
2024-02-19T11:12:05.840Z,1461.00
2024-02-19T11:13:05.834Z,1461.00
2024-02-19T11:14:05.776Z,1459.00
2024-02-19T11:15:05.803Z,1460.00
2024-02-19T11:16:05.842Z,1462.00
2024-02-19T11:17:05.898Z,1463.00
2024-02-19T11:18:05.868Z,1463.00
2024-02-19T11:19:05.830Z,1466.00
2024-02-19T11:20:05.836Z,1468.00
2024-02-19T11:21:05.823Z,1470.00
2024-02-19T11:22:05.916Z,1471.00
2024-02-19T11:23:05.793Z,1474.00
2024-02-19T11:24:05.839Z,1476.00
2024-02-19T11:25:05.838Z,1478.00
2024-02-19T11:26:05.804Z,1482.00
2024-02-19T11:27:05.808Z,1479.00
2024-02-19T11:28:05.830Z,1477.00
2024-02-19T11:29:05.821Z,1481.00
2024-02-19T11:30:05.805Z,1479.00
2024-02-19T11:31:05.886Z,1478.00
2024-02-19T11:32:05.793Z,1480.00
2024-02-19T11:33:05.854Z,1480.00
2024-02-19T11:34:05.874Z,1482.00
2024-02-19T11:35:05.841Z,1480.00
2024-02-19T11:36:05.813Z,1485.00
2024-02-19T11:37:05.885Z,1495.00
2024-02-19T11:38:05.893Z,1464.00
2024-02-19T11:39:05.866Z,1536.00
2024-02-19T11:40:05.886Z,1527.00
2024-02-19T11:41:05.850Z,1556.00
2024-02-19T11:42:07.503Z,1558.00
2024-02-19T11:43:05.924Z,1560.00
2024-02-19T11:44:05.890Z,1613.00
2024-02-19T11:45:05.874Z,1637.00
2024-02-19T11:46:05.950Z,1712.00
2024-02-19T11:47:05.873Z,1760.00
2024-02-19T11:48:06.049Z,1753.00
2024-02-19T11:49:05.976Z,1764.00
2024-02-19T11:50:06.072Z,1754.00
2024-02-19T11:51:06.018Z,1756.00
2024-02-19T11:52:10.974Z,1670.00
2024-02-19T11:53:07.123Z,1700.00
2024-02-19T11:54:06.098Z,1798.00
2024-02-19T11:55:06.111Z,1784.00
2024-02-19T11:56:06.168Z,1768.00
2024-02-19T11:57:06.057Z,1760.00
2024-02-19T11:58:06.204Z,1759.00
2024-02-19T11:59:06.097Z,1755.00
2024-02-19T12:00:06.087Z,1772.00
2024-02-19T12:01:06.210Z,1774.00
2024-02-19T12:02:07.555Z,1774.00
2024-02-19T12:03:06.273Z,1780.00
2024-02-19T12:04:06.340Z,1784.00
2024-02-19T12:05:06.460Z,1791.00
2024-02-19T12:06:06.470Z,1794.00
2024-02-19T12:07:06.614Z,1804.00
2024-02-19T12:08:06.652Z,1817.00
2024-02-19T12:09:06.676Z,1837.00
2024-02-19T12:10:06.835Z,1838.00
2024-02-19T12:11:06.815Z,1845.00
2024-02-19T12:12:07.011Z,1853.00
2024-02-19T12:13:06.900Z,1853.00
2024-02-19T12:14:06.933Z,1870.00
2024-02-19T12:15:06.983Z,1872.00
2024-02-19T12:16:07.144Z,1887.00
2024-02-19T12:17:07.183Z,1893.00
2024-02-19T12:18:07.190Z,1889.00
2024-02-19T12:19:07.383Z,1877.00
2024-02-19T12:20:07.364Z,1872.00
2024-02-19T12:21:07.307Z,1877.00